createdAt,value
2018-07-22T00:00:09.848Z,0
2018-07-22T00:01:09.892Z,0
2018-07-22T00:02:09.781Z,0
2018-07-22T00:03:09.877Z,0
2018-07-22T00:04:09.820Z,0
2018-07-22T00:05:09.847Z,0
2018-07-22T00:06:09.780Z,0
2018-07-22T00:07:09.888Z,0
2018-07-22T00:08:09.777Z,0
2018-07-22T00:09:09.787Z,0
2018-07-22T00:10:09.764Z,0
2018-07-22T00:11:09.800Z,0
2018-07-22T00:12:09.796Z,0
2018-07-22T00:13:09.823Z,0
2018-07-22T00:14:09.957Z,0
2018-07-22T00:15:09.903Z,0
2018-07-22T00:16:09.788Z,0
2018-07-22T00:17:09.839Z,0
2018-07-22T00:18:09.823Z,0
2018-07-22T00:19:09.863Z,0
2018-07-22T00:20:09.771Z,0
2018-07-22T00:21:09.790Z,0
2018-07-22T00:22:09.843Z,0
2018-07-22T00:23:09.888Z,0
2018-07-22T00:24:09.896Z,0
2018-07-22T00:25:09.898Z,0
2018-07-22T00:26:09.768Z,0
2018-07-22T00:27:09.785Z,0
2018-07-22T00:28:09.814Z,0
2018-07-22T00:29:09.916Z,0
2018-07-22T00:30:09.791Z,0
2018-07-22T00:31:09.910Z,0
2018-07-22T00:32:09.878Z,0
2018-07-22T00:33:09.808Z,0
2018-07-22T00:34:09.770Z,0
2018-07-22T00:35:09.808Z,0
2018-07-22T00:36:09.881Z,0
2018-07-22T00:37:09.774Z,0
2018-07-22T00:38:09.880Z,0
2018-07-22T00:39:09.811Z,0
2018-07-22T00:40:09.852Z,0
2018-07-22T00:41:09.812Z,0
2018-07-22T00:42:09.846Z,0
2018-07-22T00:43:09.881Z,0
2018-07-22T00:44:09.816Z,0
2018-07-22T00:45:09.886Z,0
2018-07-22T00:46:09.882Z,0
2018-07-22T00:47:09.885Z,0
2018-07-22T00:48:09.815Z,0
2018-07-22T00:49:09.833Z,0
2018-07-22T00:50:09.816Z,0
2018-07-22T00:51:09.821Z,0
2018-07-22T00:52:09.934Z,0
2018-07-22T00:53:09.917Z,0
2018-07-22T00:54:09.929Z,0
2018-07-22T00:55:09.893Z,0
2018-07-22T00:56:09.815Z,0
2018-07-22T00:57:09.818Z,0
2018-07-22T00:58:09.873Z,0
2018-07-22T00:59:09.851Z,0
2018-07-22T01:00:09.994Z,0
2018-07-22T01:01:09.937Z,0
2018-07-22T01:02:09.899Z,0
2018-07-22T01:03:09.916Z,0
2018-07-22T01:04:09.920Z,0
2018-07-22T01:05:09.933Z,0
2018-07-22T01:06:09.878Z,0
2018-07-22T01:07:09.804Z,0
2018-07-22T01:08:09.938Z,0
2018-07-22T01:09:09.880Z,0
2018-07-22T01:10:09.943Z,0
2018-07-22T01:11:09.865Z,0
2018-07-22T01:12:09.968Z,0
2018-07-22T01:13:09.907Z,0
2018-07-22T01:14:09.962Z,0
2018-07-22T01:15:09.944Z,0
2018-07-22T01:16:09.940Z,0
2018-07-22T01:17:09.829Z,0
2018-07-22T01:18:09.868Z,0
2018-07-22T01:19:09.865Z,0
2018-07-22T01:20:09.915Z,0
2018-07-22T01:21:09.878Z,0
2018-07-22T01:22:09.877Z,0
2018-07-22T01:23:09.875Z,0
2018-07-22T01:24:09.914Z,0
2018-07-22T01:25:09.912Z,0
2018-07-22T01:26:09.935Z,0
2018-07-22T01:27:09.881Z,0
2018-07-22T01:28:09.925Z,0
2018-07-22T01:29:09.951Z,0
2018-07-22T01:30:09.891Z,0
2018-07-22T01:31:09.837Z,0
2018-07-22T01:32:09.917Z,0
2018-07-22T01:33:09.919Z,0
2018-07-22T01:34:09.890Z,0
2018-07-22T01:35:09.918Z,0
2018-07-22T01:36:09.972Z,0
2018-07-22T01:37:09.860Z,0
2018-07-22T01:38:09.850Z,0
2018-07-22T01:39:09.852Z,0
2018-07-22T01:40:09.923Z,0
2018-07-22T01:41:09.908Z,0
2018-07-22T01:42:09.989Z,0
2018-07-22T01:43:09.906Z,0
2018-07-22T01:44:09.957Z,0
2018-07-22T01:45:09.847Z,0
2018-07-22T01:46:09.955Z,0
2018-07-22T01:47:09.924Z,0
2018-07-22T01:48:09.931Z,0
2018-07-22T01:49:09.847Z,0
2018-07-22T01:50:09.886Z,0
2018-07-22T01:51:09.929Z,0
2018-07-22T01:52:09.927Z,0
2018-07-22T01:53:09.871Z,0
2018-07-22T01:54:09.860Z,0
2018-07-22T01:55:09.863Z,0
2018-07-22T01:56:09.932Z,0
2018-07-22T01:57:09.942Z,0
2018-07-22T01:58:09.935Z,0
2018-07-22T01:59:09.867Z,0
2018-07-22T02:00:09.870Z,0
2018-07-22T02:01:10.001Z,0
2018-07-22T02:02:09.939Z,0
2018-07-22T02:03:09.943Z,0
2018-07-22T02:04:09.937Z,0
2018-07-22T02:05:09.941Z,0
2018-07-22T02:06:09.873Z,0
2018-07-22T02:07:09.943Z,0
2018-07-22T02:08:09.836Z,0
2018-07-22T02:09:09.874Z,0
2018-07-22T02:10:09.875Z,0
2018-07-22T02:11:09.943Z,0
2018-07-22T02:12:09.946Z,0
2018-07-22T02:13:09.968Z,0
2018-07-22T02:14:09.948Z,0
2018-07-22T02:15:09.878Z,0
2018-07-22T02:16:09.903Z,0
2018-07-22T02:17:09.916Z,0
2018-07-22T02:18:09.952Z,0
2018-07-22T02:19:09.885Z,0
2018-07-22T02:20:09.973Z,0
2018-07-22T02:21:09.959Z,0
2018-07-22T02:22:09.911Z,0
2018-07-22T02:23:09.882Z,0
2018-07-22T02:24:09.892Z,0
2018-07-22T02:25:09.886Z,0
2018-07-22T02:26:09.841Z,0
2018-07-22T02:27:09.885Z,0
2018-07-22T02:28:09.975Z,0
2018-07-22T02:29:09.887Z,0
2018-07-22T02:30:09.890Z,0
2018-07-22T02:31:09.892Z,0
2018-07-22T02:32:10.033Z,0
2018-07-22T02:33:09.876Z,0
2018-07-22T02:34:09.910Z,0
2018-07-22T02:35:09.817Z,0
2018-07-22T02:36:09.919Z,0
2018-07-22T02:37:09.828Z,0
2018-07-22T02:38:09.876Z,0
2018-07-22T02:39:09.882Z,0
2018-07-22T02:40:09.913Z,0
2018-07-22T02:41:09.879Z,0
2018-07-22T02:42:09.884Z,0
2018-07-22T02:43:09.985Z,0
2018-07-22T02:44:09.886Z,0
2018-07-22T02:45:10.053Z,0
2018-07-22T02:46:09.958Z,0
2018-07-22T02:47:09.886Z,0
2018-07-22T02:48:09.963Z,0
2018-07-22T02:49:09.889Z,0
2018-07-22T02:50:09.961Z,0
2018-07-22T02:51:09.894Z,0
2018-07-22T02:52:09.962Z,0
2018-07-22T02:53:09.974Z,0
2018-07-22T02:54:09.979Z,0
2018-07-22T02:55:09.945Z,0
2018-07-22T02:56:09.985Z,0
2018-07-22T02:57:09.993Z,0
2018-07-22T02:58:09.962Z,0
2018-07-22T02:59:09.893Z,0
2018-07-22T03:00:10.026Z,0
2018-07-22T03:01:09.918Z,0
2018-07-22T03:02:09.956Z,0
2018-07-22T03:03:09.903Z,0
2018-07-22T03:04:09.896Z,0
2018-07-22T03:05:10.013Z,0
2018-07-22T03:06:09.918Z,0
2018-07-22T03:07:09.907Z,0
2018-07-22T03:08:09.901Z,0
2018-07-22T03:09:09.904Z,0
2018-07-22T03:10:10.016Z,0
2018-07-22T03:11:09.905Z,0
2018-07-22T03:12:10.010Z,0
2018-07-22T03:13:10.025Z,0
2018-07-22T03:14:09.961Z,0
2018-07-22T03:15:09.899Z,0
2018-07-22T03:16:09.969Z,5
2018-07-22T03:17:10.015Z,5
2018-07-22T03:18:09.946Z,5
2018-07-22T03:19:09.963Z,5
2018-07-22T03:20:09.967Z,5
2018-07-22T03:21:10.050Z,5
2018-07-22T03:22:09.928Z,5
2018-07-22T03:23:09.991Z,5
2018-07-22T03:24:09.950Z,5
2018-07-22T03:25:09.919Z,11
2018-07-22T03:26:09.999Z,11
2018-07-22T03:27:10.042Z,11
2018-07-22T03:28:09.977Z,11
2018-07-22T03:29:09.932Z,11
2018-07-22T03:30:10.003Z,11
2018-07-22T03:31:09.972Z,16
2018-07-22T03:32:10.040Z,16
2018-07-22T03:33:09.894Z,16
2018-07-22T03:34:09.886Z,16
2018-07-22T03:35:09.918Z,22
2018-07-22T03:36:09.919Z,22
2018-07-22T03:37:09.919Z,22
2018-07-22T03:38:09.923Z,22
2018-07-22T03:39:09.893Z,28
2018-07-22T03:40:09.865Z,28
2018-07-22T03:41:09.922Z,28
2018-07-22T03:42:09.973Z,33
2018-07-22T03:43:09.907Z,33
2018-07-22T03:44:09.866Z,33
2018-07-22T03:45:09.905Z,39
2018-07-22T03:46:09.950Z,39
2018-07-22T03:47:09.952Z,39
2018-07-22T03:48:09.997Z,45
2018-07-22T03:49:09.951Z,45
2018-07-22T03:50:09.950Z,50
2018-07-22T03:51:09.890Z,50
2018-07-22T03:52:09.909Z,56
2018-07-22T03:53:10.110Z,56
2018-07-22T03:54:10.016Z,61
2018-07-22T03:55:10.021Z,61
2018-07-22T03:56:09.944Z,67
2018-07-22T03:57:09.975Z,73
2018-07-22T03:58:10.025Z,73
2018-07-22T03:59:09.946Z,78
2018-07-22T04:00:09.913Z,84
2018-07-22T04:01:09.951Z,90
2018-07-22T04:02:10.018Z,90
2018-07-22T04:03:10.023Z,95
2018-07-22T04:04:10.026Z,95
2018-07-22T04:05:09.941Z,101
2018-07-22T04:06:10.023Z,106
2018-07-22T04:07:10.021Z,106
2018-07-22T04:08:10.000Z,112
2018-07-22T04:09:10.167Z,118
2018-07-22T04:10:10.048Z,123
2018-07-22T04:11:09.962Z,129
2018-07-22T04:12:10.040Z,129
2018-07-22T04:13:09.942Z,135
2018-07-22T04:14:09.913Z,140
2018-07-22T04:15:09.978Z,146
2018-07-22T04:16:09.970Z,151
2018-07-22T04:17:09.971Z,157
2018-07-22T04:18:09.934Z,163
2018-07-22T04:19:09.886Z,163
2018-07-22T04:20:09.975Z,168
2018-07-22T04:21:09.975Z,174
2018-07-22T04:22:09.934Z,180
2018-07-22T04:23:09.948Z,180
2018-07-22T04:24:09.955Z,185
2018-07-22T04:25:10.023Z,185
2018-07-22T04:26:09.955Z,191
2018-07-22T04:27:10.028Z,196
2018-07-22T04:28:09.972Z,196
2018-07-22T04:29:09.906Z,202
2018-07-22T04:30:09.958Z,208
2018-07-22T04:31:10.031Z,213
2018-07-22T04:32:10.029Z,219
2018-07-22T04:33:09.938Z,225
2018-07-22T04:34:10.040Z,236
2018-07-22T04:35:10.066Z,241
2018-07-22T04:36:09.960Z,247
2018-07-22T04:37:10.020Z,253
2018-07-22T04:38:10.023Z,264
2018-07-22T04:39:10.071Z,275
2018-07-22T04:40:10.072Z,286
2018-07-22T04:41:10.011Z,292
2018-07-22T04:42:10.079Z,298
2018-07-22T04:43:09.907Z,303
2018-07-22T04:44:09.994Z,315
2018-07-22T04:45:09.901Z,320
2018-07-22T04:46:09.991Z,326
2018-07-22T04:47:09.966Z,331
2018-07-22T04:48:09.992Z,337
2018-07-22T04:49:09.951Z,343
2018-07-22T04:50:09.928Z,348
2018-07-22T04:51:09.998Z,354
2018-07-22T04:52:10.005Z,360
2018-07-22T04:53:10.053Z,365
2018-07-22T04:54:09.981Z,365
2018-07-22T04:55:10.052Z,371
2018-07-22T04:56:09.986Z,376
2018-07-22T04:57:10.052Z,382
2018-07-22T04:58:09.984Z,393
2018-07-22T04:59:09.986Z,399
2018-07-22T05:00:10.056Z,405
2018-07-22T05:01:10.059Z,410
2018-07-22T05:02:09.988Z,410
2018-07-22T05:03:10.038Z,399
2018-07-22T05:04:10.036Z,393
2018-07-22T05:05:10.014Z,388
2018-07-22T05:06:10.062Z,388
2018-07-22T05:07:10.061Z,393
2018-07-22T05:08:10.094Z,399
2018-07-22T05:09:10.028Z,405
2018-07-22T05:10:10.072Z,410
2018-07-22T05:11:10.095Z,410
2018-07-22T05:12:10.039Z,416
2018-07-22T05:13:10.067Z,416
2018-07-22T05:14:10.003Z,421
2018-07-22T05:15:10.103Z,433
2018-07-22T05:16:10.074Z,444
2018-07-22T05:17:10.036Z,461
2018-07-22T05:18:10.099Z,472
2018-07-22T05:19:10.087Z,495
2018-07-22T05:20:10.023Z,506
2018-07-22T05:21:10.035Z,511
2018-07-22T05:22:10.105Z,517
2018-07-22T05:23:10.051Z,528
2018-07-22T05:24:10.071Z,540
2018-07-22T05:25:10.043Z,551
2018-07-22T05:26:10.061Z,562
2018-07-22T05:27:10.080Z,573
2018-07-22T05:28:10.094Z,590
2018-07-22T05:29:10.076Z,601
2018-07-22T05:30:10.012Z,613
2018-07-22T05:31:10.077Z,624
2018-07-22T05:32:10.049Z,635
2018-07-22T05:33:10.076Z,652
2018-07-22T05:34:10.250Z,663
2018-07-22T05:35:10.081Z,680
2018-07-22T05:36:10.083Z,686
2018-07-22T05:37:10.078Z,691
2018-07-22T05:38:10.018Z,697
2018-07-22T05:39:10.021Z,703
2018-07-22T05:40:10.017Z,708
2018-07-22T05:41:10.081Z,720
2018-07-22T05:42:10.063Z,720
2018-07-22T05:43:10.117Z,725
2018-07-22T05:44:10.110Z,720
2018-07-22T05:45:10.086Z,720
2018-07-22T05:46:10.053Z,720
2018-07-22T05:47:10.027Z,720
2018-07-22T05:48:10.112Z,720
2018-07-22T05:49:10.065Z,720
2018-07-22T05:50:10.080Z,720
2018-07-22T05:51:10.012Z,725
2018-07-22T05:52:10.031Z,736
2018-07-22T05:53:10.057Z,731
2018-07-22T05:54:10.119Z,736
2018-07-22T05:55:10.017Z,736
2018-07-22T05:56:10.095Z,742
2018-07-22T05:57:10.091Z,753
2018-07-22T05:58:10.057Z,753
2018-07-22T05:59:10.054Z,770
2018-07-22T06:00:10.111Z,787
2018-07-22T06:01:10.055Z,798
2018-07-22T06:02:10.124Z,815
2018-07-22T06:03:10.137Z,832
2018-07-22T06:04:10.093Z,860
2018-07-22T06:05:10.121Z,905
2018-07-22T06:06:10.070Z,939
2018-07-22T06:07:10.122Z,990
2018-07-22T06:08:10.041Z,1046
2018-07-22T06:09:10.147Z,1096
2018-07-22T06:10:10.130Z,1141
2018-07-22T06:11:10.057Z,1186
2018-07-22T06:12:10.167Z,1220
2018-07-22T06:13:10.010Z,1254
2018-07-22T06:14:10.081Z,1293
2018-07-22T06:15:10.005Z,1316
2018-07-22T06:16:10.127Z,1361
2018-07-22T06:17:10.070Z,1462
2018-07-22T06:18:10.086Z,1451
2018-07-22T06:19:10.134Z,1456
2018-07-22T06:20:10.150Z,1507
2018-07-22T06:21:10.047Z,1496
2018-07-22T06:22:10.069Z,1501
2018-07-22T06:23:10.135Z,1518
2018-07-22T06:24:10.111Z,1524
2018-07-22T06:25:10.014Z,1513
2018-07-22T06:26:10.022Z,1524
2018-07-22T06:27:10.140Z,1541
2018-07-22T06:28:10.135Z,1541
2018-07-22T06:29:10.137Z,1659
2018-07-22T06:30:10.094Z,1681
2018-07-22T06:31:10.131Z,1524
2018-07-22T06:32:10.134Z,1485
2018-07-22T06:33:10.091Z,1456
2018-07-22T06:34:10.102Z,1440
2018-07-22T06:35:10.156Z,1434
2018-07-22T06:36:10.086Z,1440
2018-07-22T06:37:10.159Z,1462
2018-07-22T06:38:10.127Z,1496
2018-07-22T06:39:10.082Z,1541
2018-07-22T06:40:10.083Z,1586
2018-07-22T06:41:10.046Z,1794
2018-07-22T06:42:10.078Z,1743
2018-07-22T06:43:10.135Z,1665
2018-07-22T06:44:10.092Z,1693
2018-07-22T06:45:10.106Z,1698
2018-07-22T06:46:10.147Z,1743
2018-07-22T06:47:10.039Z,1760
2018-07-22T06:48:10.100Z,1788
2018-07-22T06:49:10.132Z,1974
2018-07-22T06:50:10.029Z,2176
2018-07-22T06:51:10.134Z,2160
2018-07-22T06:52:10.145Z,1996
2018-07-22T06:53:10.070Z,2092
2018-07-22T06:54:10.098Z,2193
2018-07-22T06:55:10.093Z,2283
2018-07-22T06:56:10.094Z,2317
2018-07-22T06:57:10.099Z,2390
2018-07-22T06:58:10.174Z,2458
2018-07-22T06:59:10.100Z,2520
2018-07-22T07:00:10.181Z,2559
2018-07-22T07:01:10.107Z,2604
2018-07-22T07:02:10.172Z,2643
2018-07-22T07:03:10.007Z,2660
2018-07-22T07:04:10.071Z,2677
2018-07-22T07:05:10.131Z,2716
2018-07-22T07:06:10.046Z,2739
2018-07-22T07:07:10.128Z,2750
2018-07-22T07:08:10.134Z,2773
2018-07-22T07:09:10.014Z,2750
2018-07-22T07:10:10.138Z,2716
2018-07-22T07:11:10.062Z,2700
2018-07-22T07:12:10.132Z,2722
2018-07-22T07:13:10.093Z,2728
2018-07-22T07:14:10.076Z,2756
2018-07-22T07:15:10.146Z,2778
2018-07-22T07:16:10.079Z,2790
2018-07-22T07:17:10.146Z,2790
2018-07-22T07:18:10.083Z,2812
2018-07-22T07:19:10.148Z,2806
2018-07-22T07:20:10.086Z,2823
2018-07-22T07:21:10.088Z,2902
2018-07-22T07:22:10.218Z,2930
2018-07-22T07:23:10.177Z,2986
2018-07-22T07:24:10.181Z,3009
2018-07-22T07:25:10.181Z,3003
2018-07-22T07:26:10.184Z,2992
2018-07-22T07:27:10.119Z,2981
2018-07-22T07:28:10.134Z,3015
2018-07-22T07:29:10.135Z,2671
2018-07-22T07:30:10.186Z,2565
2018-07-22T07:31:10.122Z,2885
2018-07-22T07:32:10.113Z,2981
2018-07-22T07:33:10.115Z,3318
2018-07-22T07:34:10.120Z,3363
2018-07-22T07:35:10.057Z,3397
2018-07-22T07:36:10.098Z,3391
2018-07-22T07:37:10.189Z,3296
2018-07-22T07:38:10.180Z,2503
2018-07-22T07:39:10.144Z,2880
2018-07-22T07:40:10.101Z,2598
2018-07-22T07:41:10.092Z,3105
2018-07-22T07:42:10.067Z,3453
2018-07-22T07:43:10.101Z,3470
2018-07-22T07:44:10.166Z,3386
2018-07-22T07:45:10.100Z,3133
2018-07-22T07:46:10.167Z,2896
2018-07-22T07:47:10.103Z,2548
2018-07-22T07:48:10.167Z,2362
2018-07-22T07:49:10.104Z,2289
2018-07-22T07:50:10.106Z,2272
2018-07-22T07:51:10.107Z,2244
2018-07-22T07:52:10.170Z,2221
2018-07-22T07:53:10.109Z,2193
2018-07-22T07:54:10.171Z,2165
2018-07-22T07:55:10.103Z,2148
2018-07-22T07:56:10.106Z,2131
2018-07-22T07:57:10.107Z,2137
2018-07-22T07:58:10.176Z,2143
2018-07-22T07:59:10.145Z,2154
2018-07-22T08:00:10.178Z,2182
2018-07-22T08:01:10.111Z,2210
2018-07-22T08:02:10.176Z,2295
2018-07-22T08:03:10.193Z,2542
2018-07-22T08:04:10.208Z,2300
2018-07-22T08:05:10.207Z,2233
2018-07-22T08:06:10.213Z,2221
2018-07-22T08:07:10.315Z,2407
2018-07-22T08:08:10.217Z,2407
2018-07-22T08:09:10.186Z,2373
2018-07-22T08:10:10.184Z,2418
2018-07-22T08:11:10.185Z,2317
2018-07-22T08:12:10.167Z,2250
2018-07-22T08:13:10.127Z,2210
2018-07-22T08:14:10.187Z,2165
2018-07-22T08:15:10.190Z,2098
2018-07-22T08:16:10.167Z,2070
2018-07-22T08:17:10.188Z,2047
2018-07-22T08:18:10.195Z,2047
2018-07-22T08:19:10.204Z,2300
2018-07-22T08:20:10.125Z,1884
2018-07-22T08:21:10.192Z,1833
2018-07-22T08:22:10.140Z,1850
2018-07-22T08:23:10.128Z,1901
2018-07-22T08:24:10.128Z,1935
2018-07-22T08:25:10.129Z,1974
2018-07-22T08:26:10.139Z,2019
2018-07-22T08:27:10.199Z,2070
2018-07-22T08:28:10.198Z,2216
2018-07-22T08:29:10.204Z,2295
2018-07-22T08:30:10.267Z,2553
2018-07-22T08:31:10.133Z,2930
2018-07-22T08:32:10.197Z,3858
2018-07-22T08:33:10.139Z,4123
2018-07-22T08:34:10.089Z,3408
2018-07-22T08:35:10.133Z,4100
2018-07-22T08:36:10.152Z,3976
2018-07-22T08:37:10.180Z,4016
2018-07-22T08:38:10.072Z,4010
2018-07-22T08:39:10.137Z,3965
2018-07-22T08:40:10.097Z,4005
2018-07-22T08:41:10.250Z,4134
2018-07-22T08:42:10.093Z,4190
2018-07-22T08:43:10.100Z,4269
2018-07-22T08:44:10.180Z,4275
2018-07-22T08:45:10.168Z,4218
2018-07-22T08:46:10.164Z,4230
2018-07-22T08:47:10.229Z,4241
2018-07-22T08:48:10.170Z,4224
2018-07-22T08:49:10.182Z,4235
2018-07-22T08:50:10.193Z,4263
2018-07-22T08:51:10.137Z,4320
2018-07-22T08:52:10.184Z,4336
2018-07-22T08:53:10.229Z,4376
2018-07-22T08:54:10.148Z,4387
2018-07-22T08:55:10.220Z,4359
2018-07-22T08:56:10.151Z,4353
2018-07-22T08:57:10.213Z,4348
2018-07-22T08:58:10.151Z,4314
2018-07-22T08:59:10.218Z,4258
2018-07-22T09:00:10.158Z,4246
2018-07-22T09:01:10.222Z,4224
2018-07-22T09:02:10.156Z,4190
2018-07-22T09:03:10.162Z,4128
2018-07-22T09:04:10.223Z,4190
2018-07-22T09:05:10.155Z,4258
2018-07-22T09:06:10.230Z,4224
2018-07-22T09:07:10.157Z,4230
2018-07-22T09:08:10.203Z,4286
2018-07-22T09:09:10.230Z,4325
2018-07-22T09:10:10.160Z,4365
2018-07-22T09:11:10.159Z,4376
2018-07-22T09:12:10.163Z,4359
2018-07-22T09:13:10.232Z,4280
2018-07-22T09:14:10.173Z,4297
2018-07-22T09:15:10.260Z,3600
2018-07-22T09:16:10.232Z,4471
2018-07-22T09:17:10.160Z,4443
2018-07-22T09:18:10.253Z,4286
2018-07-22T09:19:10.234Z,4533
2018-07-22T09:20:10.155Z,4590
2018-07-22T09:21:10.135Z,4623
2018-07-22T09:22:10.164Z,4651
2018-07-22T09:23:10.236Z,4455
2018-07-22T09:24:10.172Z,2902
2018-07-22T09:25:10.188Z,4657
2018-07-22T09:26:10.264Z,4674
2018-07-22T09:27:10.283Z,4674
2018-07-22T09:28:10.237Z,4640
2018-07-22T09:29:10.197Z,3774
2018-07-22T09:30:10.260Z,4635
2018-07-22T09:31:10.177Z,4550
2018-07-22T09:32:10.239Z,4477
2018-07-22T09:33:10.141Z,3796
2018-07-22T09:34:10.270Z,2610
2018-07-22T09:35:10.217Z,2390
2018-07-22T09:36:10.389Z,2373
2018-07-22T09:37:10.150Z,2441
2018-07-22T09:38:10.277Z,4460
2018-07-22T09:39:10.341Z,4590
2018-07-22T09:40:10.246Z,4511
2018-07-22T09:41:10.202Z,4488
2018-07-22T09:42:10.292Z,4629
2018-07-22T09:43:10.154Z,4775
2018-07-22T09:44:10.184Z,4888
2018-07-22T09:45:10.181Z,4770
2018-07-22T09:46:10.181Z,4680
2018-07-22T09:47:10.249Z,4590
2018-07-22T09:48:10.302Z,4477
2018-07-22T09:49:10.248Z,2401
2018-07-22T09:50:10.194Z,2182
2018-07-22T09:51:10.245Z,2030
2018-07-22T09:52:10.185Z,1946
2018-07-22T09:53:10.190Z,1895
2018-07-22T09:54:10.213Z,1867
2018-07-22T09:55:10.195Z,1856
2018-07-22T09:56:10.287Z,1850
2018-07-22T09:57:10.267Z,1845
2018-07-22T09:58:10.228Z,1828
2018-07-22T09:59:10.265Z,1816
2018-07-22T10:00:10.286Z,1845
2018-07-22T10:01:10.159Z,1861
2018-07-22T10:02:10.260Z,1890
2018-07-22T10:03:10.262Z,1923
2018-07-22T10:04:10.252Z,1968
2018-07-22T10:05:10.250Z,1968
2018-07-22T10:06:10.251Z,2233
2018-07-22T10:07:10.172Z,2008
2018-07-22T10:08:10.147Z,2041
2018-07-22T10:09:10.260Z,2086
2018-07-22T10:10:10.262Z,2109
2018-07-22T10:11:10.332Z,2120
2018-07-22T10:12:10.192Z,2120
2018-07-22T10:13:10.260Z,2120
2018-07-22T10:14:10.166Z,2126
2018-07-22T10:15:10.175Z,2160
2018-07-22T10:16:10.217Z,2266
2018-07-22T10:17:10.173Z,2210
2018-07-22T10:18:10.167Z,2165
2018-07-22T10:19:10.220Z,2193
2018-07-22T10:20:10.180Z,2244
2018-07-22T10:21:10.220Z,2328
2018-07-22T10:22:10.190Z,2396
2018-07-22T10:23:10.172Z,2430
2018-07-22T10:24:10.181Z,2413
2018-07-22T10:25:10.266Z,2351
2018-07-22T10:26:10.230Z,2317
2018-07-22T10:27:10.265Z,2311
2018-07-22T10:28:10.271Z,2373
2018-07-22T10:29:10.167Z,2435
2018-07-22T10:30:10.230Z,2711
2018-07-22T10:31:10.269Z,4550
2018-07-22T10:32:10.284Z,4635
2018-07-22T10:33:10.186Z,4713
2018-07-22T10:34:10.184Z,4882
2018-07-22T10:35:10.230Z,5124
2018-07-22T10:36:10.229Z,5298
2018-07-22T10:37:10.230Z,5388
2018-07-22T10:38:10.274Z,5422
2018-07-22T10:39:10.282Z,5461
2018-07-22T10:40:10.224Z,5529
2018-07-22T10:41:10.241Z,5394
2018-07-22T10:42:10.192Z,4545
2018-07-22T10:43:10.304Z,4365
2018-07-22T10:44:10.162Z,2908
2018-07-22T10:45:10.224Z,2705
2018-07-22T10:46:10.198Z,2593
2018-07-22T10:47:10.285Z,2801
2018-07-22T10:48:10.230Z,3960
2018-07-22T10:49:10.166Z,4325
2018-07-22T10:50:10.300Z,2486
2018-07-22T10:51:10.227Z,2227
2018-07-22T10:52:10.166Z,1974
2018-07-22T10:53:10.250Z,1800
2018-07-22T10:54:10.270Z,1710
2018-07-22T10:55:10.317Z,1681
2018-07-22T10:56:10.332Z,1693
2018-07-22T10:57:10.298Z,1743
2018-07-22T10:58:10.202Z,1850
2018-07-22T10:59:10.323Z,1912
2018-07-22T11:00:10.220Z,1963
2018-07-22T11:01:10.256Z,2013
2018-07-22T11:02:10.275Z,2520
2018-07-22T11:03:10.290Z,1923
2018-07-22T11:04:10.270Z,1749
2018-07-22T11:05:10.324Z,1603
2018-07-22T11:06:10.259Z,1530
2018-07-22T11:07:10.316Z,1479
2018-07-22T11:08:10.284Z,1445
2018-07-22T11:09:10.343Z,1445
2018-07-22T11:10:10.235Z,1479
2018-07-22T11:11:10.265Z,1485
2018-07-22T11:12:10.346Z,1462
2018-07-22T11:13:10.273Z,1462
2018-07-22T11:14:10.336Z,1490
2018-07-22T11:15:10.230Z,1507
2018-07-22T11:16:10.208Z,1586
2018-07-22T11:17:10.337Z,1710
2018-07-22T11:18:10.231Z,1788
2018-07-22T11:19:10.269Z,1828
2018-07-22T11:20:10.277Z,2925
2018-07-22T11:21:10.331Z,2458
2018-07-22T11:22:10.222Z,3099
2018-07-22T11:23:10.273Z,1912
2018-07-22T11:24:10.253Z,1940
2018-07-22T11:25:10.317Z,2008
2018-07-22T11:26:10.280Z,2683
2018-07-22T11:27:10.266Z,2508
2018-07-22T11:28:10.254Z,3110
2018-07-22T11:29:10.363Z,3526
2018-07-22T11:30:10.319Z,3892
2018-07-22T11:31:10.322Z,2385
2018-07-22T11:32:10.321Z,2508
2018-07-22T11:33:10.259Z,2773
2018-07-22T11:34:10.386Z,2857
2018-07-22T11:35:10.288Z,3020
2018-07-22T11:36:10.272Z,4477
2018-07-22T11:37:10.360Z,4533
2018-07-22T11:38:10.369Z,2666
2018-07-22T11:39:10.363Z,2615
2018-07-22T11:40:10.329Z,2469
2018-07-22T11:41:10.266Z,2525
2018-07-22T11:42:10.329Z,2475
2018-07-22T11:43:10.357Z,2356
2018-07-22T11:44:10.295Z,2255
2018-07-22T11:45:10.306Z,2165
2018-07-22T11:46:10.352Z,2137
2018-07-22T11:47:10.303Z,1980
2018-07-22T11:48:10.303Z,1980
2018-07-22T11:49:10.306Z,1951
2018-07-22T11:50:10.256Z,1906
2018-07-22T11:51:10.369Z,1681
2018-07-22T11:52:10.307Z,1603
2018-07-22T11:53:10.294Z,1524
2018-07-22T11:54:10.337Z,1501
2018-07-22T11:55:10.270Z,1490
2018-07-22T11:56:10.339Z,2480
2018-07-22T11:57:10.336Z,1468
2018-07-22T11:58:10.340Z,1361
2018-07-22T11:59:10.344Z,1333
2018-07-22T12:00:10.280Z,1383
2018-07-22T12:01:10.277Z,2295
2018-07-22T12:02:10.279Z,1271
2018-07-22T12:03:10.351Z,1125
2018-07-22T12:04:10.321Z,1006
2018-07-22T12:05:10.369Z,956
2018-07-22T12:06:10.306Z,961
2018-07-22T12:07:10.345Z,995
2018-07-22T12:08:10.316Z,1051
2018-07-22T12:09:10.364Z,1096
2018-07-22T12:10:10.379Z,1096
2018-07-22T12:11:10.298Z,1085
2018-07-22T12:12:10.328Z,1012
2018-07-22T12:13:10.377Z,961
2018-07-22T12:14:10.347Z,900
2018-07-22T12:15:10.352Z,860
2018-07-22T12:16:10.349Z,821
2018-07-22T12:17:10.350Z,742
2018-07-22T12:18:10.287Z,663
2018-07-22T12:19:10.289Z,601
2018-07-22T12:20:10.351Z,556
2018-07-22T12:21:10.298Z,517
2018-07-22T12:22:10.361Z,483
2018-07-22T12:23:10.297Z,450
2018-07-22T12:24:10.358Z,433
2018-07-22T12:25:10.293Z,405
2018-07-22T12:26:10.356Z,399
2018-07-22T12:27:10.302Z,393
2018-07-22T12:28:10.489Z,393
2018-07-22T12:29:10.343Z,388
2018-07-22T12:30:10.364Z,393
2018-07-22T12:31:10.316Z,399
2018-07-22T12:32:10.303Z,405
2018-07-22T12:33:10.359Z,410
2018-07-22T12:34:10.301Z,427
2018-07-22T12:35:10.303Z,461
2018-07-22T12:36:10.299Z,483
2018-07-22T12:37:10.302Z,500
2018-07-22T12:38:10.303Z,511
2018-07-22T12:39:10.299Z,517
2018-07-22T12:40:10.368Z,523
2018-07-22T12:41:10.368Z,528
2018-07-22T12:42:10.370Z,545
2018-07-22T12:43:10.369Z,562
2018-07-22T12:44:10.402Z,573
2018-07-22T12:45:10.404Z,573
2018-07-22T12:46:10.390Z,562
2018-07-22T12:47:10.350Z,551
2018-07-22T12:48:10.449Z,540
2018-07-22T12:49:10.373Z,545
2018-07-22T12:50:10.279Z,556
2018-07-22T12:51:10.353Z,534
2018-07-22T12:52:10.281Z,489
2018-07-22T12:53:10.333Z,466
2018-07-22T12:54:10.439Z,461
2018-07-22T12:55:10.422Z,466
2018-07-22T12:56:10.343Z,489
2018-07-22T12:57:10.421Z,500
2018-07-22T12:58:10.366Z,511
2018-07-22T12:59:10.424Z,534
2018-07-22T13:00:10.362Z,585
2018-07-22T13:01:10.330Z,613
2018-07-22T13:02:10.389Z,630
2018-07-22T13:03:10.402Z,641
2018-07-22T13:04:10.383Z,624
2018-07-22T13:05:10.419Z,624
2018-07-22T13:06:10.414Z,607
2018-07-22T13:07:10.321Z,596
2018-07-22T13:08:10.372Z,556
2018-07-22T13:09:10.429Z,601
2018-07-22T13:10:10.425Z,540
2018-07-22T13:11:10.392Z,495
2018-07-22T13:12:10.416Z,478
2018-07-22T13:13:10.390Z,478
2018-07-22T13:14:10.386Z,517
2018-07-22T13:15:10.298Z,590
2018-07-22T13:16:10.319Z,1153
2018-07-22T13:18:10.328Z,1350
2018-07-22T13:19:10.318Z,1395
2018-07-22T13:20:10.390Z,1192
2018-07-22T13:21:10.330Z,1293
2018-07-22T13:22:10.389Z,1350
2018-07-22T13:23:10.299Z,1423
2018-07-22T13:24:10.282Z,1456
2018-07-22T13:25:10.359Z,1569
2018-07-22T13:26:10.439Z,1811
2018-07-22T13:27:10.369Z,1136
2018-07-22T13:28:10.417Z,1074
2018-07-22T13:29:10.374Z,1040
2018-07-22T13:30:10.375Z,1237
2018-07-22T13:31:10.367Z,1732
2018-07-22T13:32:10.327Z,1653
2018-07-22T13:33:10.325Z,1265
2018-07-22T13:34:10.413Z,1400
2018-07-22T13:35:10.433Z,1423
2018-07-22T13:36:10.371Z,1366
2018-07-22T13:37:10.312Z,1327
2018-07-22T13:38:10.486Z,1653
2018-07-22T13:39:10.359Z,1676
2018-07-22T13:40:10.376Z,1636
2018-07-22T13:41:10.388Z,1310
2018-07-22T13:42:10.409Z,1203
2018-07-22T13:43:10.389Z,1147
2018-07-22T13:44:10.452Z,1091
2018-07-22T13:45:10.451Z,1018
2018-07-22T13:46:10.400Z,911
2018-07-22T13:47:10.325Z,832
2018-07-22T13:48:10.343Z,770
2018-07-22T13:49:10.448Z,742